Terminal Aerodrome Forecast
Issued by NWS Charleston, WV

Home | Current Version | Previous Version | Text Only | Print | Product List | Glossary On
Versions: 1 2 3 4 5 6 7 8 9 10 11 12 13 14 15 16 17 18 19 20 21 22 23 24 25 26 27 28 29 30
820
FTUS41 KRLX 241120
TAFEKN
TAF
KEKN 241120Z 2412/2512 00000KT 5SM BR SCT035 BKN080
     FM241300 00000KT P6SM SCT040 OVC100
     FM241600 22004KT P6SM SCT020 BKN060
     FM241800 20005KT P6SM -RA SCT020 BKN035
     FM242200 20005KT P6SM OVC045
     FM250800 20007KT 6SM SHRA BKN035=

USA.gov is the U.S. government's official web portal to all federal, state and local government web resources and services.